Time;durP1;ratioP1;P1;durP2;ratioP2;P2;SDS_P1;SDS_P2;PMS_P1;PMS_P2;Temp;Humidity;BMP_temperature;BMP_pressure;BME280_temperature;BME280_humidity;BME280_pressure;Samples;Min_cycle;Max_cycle;Signal;HPM_P1;HPM_P2
2022/03/16 00:02:19;;;;;;;50.00;31.33;;;5.50;99.90;;;;;;6210251;23;20012;-34
2022/03/16 00:04:47;;;;;;;53.33;31.40;;;5.50;99.90;;;;;;6208893;23;20047;-36
2022/03/16 00:07:13;;;;;;;45.07;28.57;;;5.40;99.90;;;;;;6188595;23;20339;-34
2022/03/16 00:09:39;;;;;;;48.63;29.10;;;5.40;99.90;;;;;;6210432;23;20024;-35
2022/03/16 00:12:05;;;;;;;44.50;27.80;;;5.30;99.90;;;;;;6209871;23;20024;-35
2022/03/16 00:14:30;;;;;;;44.83;28.43;;;5.30;99.90;;;;;;6210506;23;20409;-36
2022/03/16 00:16:56;;;;;;;53.10;31.23;;;5.20;99.90;;;;;;6190058;23;20044;-33
2022/03/16 00:19:22;;;;;;;54.70;31.50;;;5.20;99.90;;;;;;6209140;23;20032;-35
2022/03/16 00:21:47;;;;;;;50.50;30.97;;;5.20;99.90;;;;;;6210527;23;20035;-33
2022/03/16 00:24:13;;;;;;;53.00;30.80;;;5.10;99.90;;;;;;6206950;23;20028;-35
2022/03/16 00:26:39;;;;;;;48.33;29.00;;;5.10;99.90;;;;;;6194000;23;20013;-35
2022/03/16 00:29:04;;;;;;;53.10;30.63;;;5.10;99.90;;;;;;6206828;23;20460;-33
2022/03/16 00:31:31;;;;;;;54.20;30.93;;;5.00;99.90;;;;;;6209969;23;20027;-36
2022/03/16 00:33:57;;;;;;;54.63;31.57;;;5.00;99.90;;;;;;6209098;23;20020;-33
2022/03/16 00:36:23;;;;;;;57.83;32.80;;;5.00;99.90;;;;;;6195284;23;20127;-36
2022/03/16 00:38:49;;;;;;;47.87;29.23;;;4.90;99.90;;;;;;6205933;23;20009;-33
2022/03/16 00:41:16;;;;;;;61.83;34.83;;;4.90;99.90;;;;;;6211078;23;20024;-35
2022/03/16 00:43:42;;;;;;;62.30;35.40;;;4.90;99.90;;;;;;6207479;23;20051;-36
2022/03/16 00:46:07;;;;;;;55.87;32.23;;;4.80;99.90;;;;;;6202679;23;20052;-37
2022/03/16 00:48:33;;;;;;;47.80;30.70;;;4.80;99.90;;;;;;6197601;23;20479;-36
2022/03/16 00:50:59;;;;;;;49.90;29.90;;;4.70;99.90;;;;;;6210694;23;20515;-32
2022/03/16 00:53:24;;;;;;;57.60;31.63;;;4.70;99.90;;;;;;6208737;23;20021;-33
2022/03/16 00:55:50;;;;;;;57.63;33.53;;;4.60;99.90;;;;;;6210314;23;20025;-36
2022/03/16 00:58:16;;;;;;;57.63;33.83;;;4.60;99.90;;;;;;6189583;23;20020;-36
2022/03/16 01:00:42;;;;;;;53.70;32.17;;;4.60;99.90;;;;;;6210969;23;20221;-34
2022/03/16 01:03:08;;;;;;;58.93;34.60;;;4.60;99.90;;;;;;6209014;23;20032;-34
2022/03/16 01:05:33;;;;;;;62.10;37.53;;;4.50;99.90;;;;;;6210278;23;20031;-35
2022/03/16 01:07:59;;;;;;;63.30;36.27;;;4.50;99.90;;;;;;6189949;23;20017;-35
2022/03/16 01:10:25;;;;;;;59.53;34.50;;;4.50;99.90;;;;;;6209666;23;20044;-33
2022/03/16 01:12:53;;;;;;;58.80;35.77;;;4.40;99.90;;;;;;6207598;23;20051;-33
2022/03/16 01:15:23;;;;;;;52.90;32.90;;;4.40;99.90;;;;;;6209848;23;20016;-33
2022/03/16 01:17:50;;;;;;;64.93;36.17;;;4.40;99.90;;;;;;6188498;23;20031;-34
2022/03/16 01:20:16;;;;;;;57.87;36.17;;;4.40;99.90;;;;;;6209632;23;20465;-35
2022/03/16 01:22:41;;;;;;;61.57;35.60;;;4.30;99.90;;;;;;6209053;23;20025;-33
2022/03/16 01:25:07;;;;;;;62.80;36.20;;;4.30;99.90;;;;;;6209705;23;20028;-35
2022/03/16 01:27:33;;;;;;;55.37;32.73;;;4.30;99.90;;;;;;6187808;23;20024;-32
2022/03/16 01:29:58;;;;;;;55.90;33.17;;;4.30;99.90;;;;;;6207512;23;20071;-36
2022/03/16 01:32:24;;;;;;;54.63;34.03;;;4.20;99.90;;;;;;6209144;23;20027;-34
2022/03/16 01:34:50;;;;;;;55.77;32.93;;;4.10;99.90;;;;;;6209822;23;20444;-35
2022/03/16 01:37:15;;;;;;;57.17;33.23;;;4.10;99.90;;;;;;6191300;23;20048;-36
2022/03/16 01:39:41;;;;;;;68.10;37.73;;;4.20;99.90;;;;;;6207158;23;20027;-35
2022/03/16 01:42:07;;;;;;;73.27;42.03;;;4.20;99.90;;;;;;6207066;23;20535;-36
2022/03/16 01:44:49;;;;;;;84.43;46.03;;;4.20;99.90;;;;;;6209272;23;20064;-36
2022/03/16 01:47:15;;;;;;;;;;;4.20;99.90;;;;;;6189188;23;20051;-36
2022/03/16 01:49:41;;;;;;;84.67;45.63;;;4.30;99.90;;;;;;6208613;23;20343;-36
2022/03/16 01:52:09;;;;;;;93.30;48.97;;;4.30;99.90;;;;;;6207513;23;20090;-36
2022/03/16 01:54:38;;;;;;;88.77;46.20;;;4.30;99.90;;;;;;6209148;23;20016;-36
2022/03/16 01:57:04;;;;;;;93.87;50.40;;;4.30;99.90;;;;;;6190149;23;20020;-35
2022/03/16 01:59:30;;;;;;;94.30;50.53;;;4.40;99.90;;;;;;6209360;23;20017;-35
2022/03/16 02:01:57;;;;;;;87.00;48.47;;;4.40;99.90;;;;;;6207800;23;20022;-35
2022/03/16 02:04:23;;;;;;;86.43;47.77;;;4.40;99.90;;;;;;6208225;23;20507;-36
2022/03/16 02:06:48;;;;;;;85.07;47.53;;;4.50;99.90;;;;;;6191179;23;20096;-36
2022/03/16 02:09:14;;;;;;;82.20;48.37;;;4.50;99.90;;;;;;6206320;23;20444;-36
2022/03/16 02:11:40;;;;;;;89.20;47.50;;;4.50;99.90;;;;;;6209361;23;20020;-35
2022/03/16 02:14:06;;;;;;;81.97;45.63;;;4.60;99.90;;;;;;6208300;23;20027;-33
2022/03/16 02:16:35;;;;;;;71.00;41.40;;;4.50;99.90;;;;;;6192591;23;20009;-34
2022/03/16 02:19:01;;;;;;;78.07;44.80;;;4.40;99.90;;;;;;6206253;23;20025;-34
2022/03/16 02:21:31;;;;;;;75.70;42.53;;;4.50;99.90;;;;;;6209138;23;20376;-35
2022/03/16 02:23:57;;;;;;;71.87;41.37;;;4.30;99.90;;;;;;6205869;23;20067;-32
2022/03/16 02:26:26;;;;;;;65.27;39.17;;;4.30;99.90;;;;;;6191910;23;20361;-33
2022/03/16 02:28:53;;;;;;;64.87;38.43;;;4.30;99.90;;;;;;6204273;23;20472;-36
2022/03/16 02:31:19;;;;;;;61.33;37.60;;;4.20;99.90;;;;;;6209120;23;20449;-33
2022/03/16 02:33:45;;;;;;;62.53;36.37;;;4.20;99.90;;;;;;6206277;23;20027;-34
2022/03/16 02:36:11;;;;;;;64.93;34.30;;;4.10;99.90;;;;;;6199476;23;20629;-36
2022/03/16 02:38:37;;;;;;;47.93;30.00;;;4.10;99.90;;;;;;6200915;23;20050;-34
2022/03/16 02:41:03;;;;;;;43.47;29.30;;;4.00;99.90;;;;;;6208816;23;20025;-36
2022/03/16 02:43:29;;;;;;;43.87;28.23;;;4.00;99.90;;;;;;6207876;23;20456;-35
2022/03/16 02:45:55;;;;;;;47.17;30.10;;;3.90;99.90;;;;;;6209715;23;20026;-35
2022/03/16 02:48:21;;;;;;;42.70;27.47;;;3.80;99.90;;;;;;6189297;23;20028;-36
2022/03/16 02:50:47;;;;;;;49.27;28.23;;;3.90;99.90;;;;;;6209274;23;20017;-35
2022/03/16 02:53:15;;;;;;;51.13;26.67;;;3.80;99.90;;;;;;6208225;23;20029;-36
2022/03/16 02:55:41;;;;;;;39.70;25.20;;;3.80;99.90;;;;;;6208982;23;20012;-34
2022/03/16 02:58:08;;;;;;;40.03;27.97;;;3.70;99.90;;;;;;6188924;23;20051;-33
2022/03/16 03:00:34;;;;;;;45.23;27.50;;;3.70;99.90;;;;;;6209504;23;20100;-35
2022/03/16 03:02:59;;;;;;;48.63;29.53;;;3.60;99.90;;;;;;6208470;23;20019;-32
2022/03/16 03:05:25;;;;;;;44.63;28.13;;;3.60;99.90;;;;;;6208571;23;20021;-34
2022/03/16 03:07:51;;;;;;;51.43;30.33;;;3.60;99.90;;;;;;6189747;23;20059;-36
2022/03/16 03:10:17;;;;;;;43.23;28.73;;;3.60;99.90;;;;;;6208667;23;20028;-35
2022/03/16 03:12:43;;;;;;;79.53;28.23;;;3.50;99.90;;;;;;6208724;23;20510;-36
2022/03/16 03:15:14;;;;;;;41.17;26.97;;;3.50;99.90;;;;;;6208728;23;20440;-36
2022/03/16 03:17:41;;;;;;;37.77;24.63;;;3.50;99.90;;;;;;6189554;23;20092;-36
2022/03/16 03:20:08;;;;;;;36.80;24.77;;;3.50;99.90;;;;;;6208393;23;20386;-36
2022/03/16 03:22:33;;;;;;;36.43;23.87;;;3.40;99.90;;;;;;6206866;23;20036;-35
2022/03/16 03:25:01;;;;;;;33.07;23.00;;;3.40;99.90;;;;;;6207258;23;20021;-35
2022/03/16 03:27:26;;;;;;;45.20;26.57;;;3.40;99.90;;;;;;6188760;23;20452;-34
2022/03/16 03:29:52;;;;;;;35.87;24.90;;;3.40;99.90;;;;;;6206352;23;20104;-36
2022/03/16 03:32:18;;;;;;;41.53;24.13;;;3.30;99.90;;;;;;6208675;23;20035;-34
2022/03/16 03:34:47;;;;;;;41.53;26.63;;;3.30;99.90;;;;;;6210872;23;20020;-36
2022/03/16 03:37:14;;;;;;;43.50;27.37;;;3.30;99.90;;;;;;6192223;23;20025;-35
2022/03/16 03:39:41;;;;;;;43.17;27.33;;;3.20;99.90;;;;;;6210626;23;20021;-35
2022/03/16 03:42:07;;;;;;;46.63;28.50;;;3.20;99.90;;;;;;6208907;23;20044;-33
2022/03/16 03:44:37;;;;;;;47.10;28.70;;;3.20;99.90;;;;;;6183512;23;20087;-36
2022/03/16 03:47:04;;;;;;;43.83;27.27;;;3.20;99.90;;;;;;6192311;23;20068;-35
2022/03/16 03:49:31;;;;;;;46.37;27.53;;;3.20;99.90;;;;;;6210078;23;20020;-34
2022/03/16 03:51:57;;;;;;;43.90;28.07;;;3.30;99.90;;;;;;6208882;23;20437;-35
2022/03/16 03:54:22;;;;;;;42.90;28.17;;;3.10;99.90;;;;;;6210088;23;20047;-35
2022/03/16 03:56:48;;;;;;;47.10;29.43;;;3.10;99.90;;;;;;6191455;23;20476;-36
2022/03/16 03:59:13;;;;;;;46.40;30.47;;;3.10;99.90;;;;;;6207982;23;20024;-33
2022/03/16 04:01:39;;;;;;;57.87;33.43;;;3.10;99.90;;;;;;6210613;23;20016;-32
2022/03/16 04:04:07;;;;;;;57.80;33.53;;;3.10;99.90;;;;;;6209720;23;20025;-35
2022/03/16 04:06:33;;;;;;;86.13;32.87;;;3.10;99.90;;;;;;6193078;23;20706;-36
2022/03/16 04:08:59;;;;;;;61.17;33.40;;;3.10;99.90;;;;;;6207972;23;20027;-35
2022/03/16 04:11:24;;;;;;;46.33;29.33;;;3.10;99.90;;;;;;6210712;23;20409;-37
2022/03/16 04:13:50;;;;;;;43.33;27.87;;;3.10;99.90;;;;;;6210409;23;20337;-32
2022/03/16 04:16:15;;;;;;;60.87;31.53;;;3.10;99.90;;;;;;6196604;23;20013;-36
2022/03/16 04:18:41;;;;;;;48.00;29.17;;;3.00;99.90;;;;;;6202203;23;20099;-36
2022/03/16 04:21:07;;;;;;;60.13;35.37;;;3.00;99.90;;;;;;6210123;23;20059;-35
2022/03/16 04:23:32;;;;;;;62.30;35.00;;;3.00;99.90;;;;;;6209948;23;20028;-35
2022/03/16 04:25:58;;;;;;;91.20;36.07;;;3.00;99.90;;;;;;6210578;23;20066;-36
2022/03/16 04:28:24;;;;;;;64.13;35.23;;;3.00;99.90;;;;;;6190092;23;20028;-37
2022/03/16 04:30:49;;;;;;;60.30;34.77;;;3.00;99.90;;;;;;6209741;23;20020;-33
2022/03/16 04:33:15;;;;;;;53.73;33.47;;;2.90;99.90;;;;;;6210218;23;20031;-35
2022/03/16 04:35:41;;;;;;;49.37;31.13;;;2.90;99.90;;;;;;6208474;23;20028;-35
2022/03/16 04:38:08;;;;;;;56.10;33.83;;;2.90;99.90;;;;;;6192088;23;20094;-35
2022/03/16 04:40:34;;;;;;;50.03;31.67;;;2.90;99.90;;;;;;6207736;23;20028;-35
2022/03/16 04:43:00;;;;;;;53.27;34.23;;;2.80;99.90;;;;;;6209881;23;20016;-33
2022/03/16 04:45:26;;;;;;;48.83;30.77;;;2.80;99.90;;;;;;6209523;23;20099;-35
2022/03/16 04:47:52;;;;;;;49.80;31.27;;;2.80;99.90;;;;;;6190733;23;20087;-35
2022/03/16 04:50:18;;;;;;;51.87;31.43;;;2.80;99.90;;;;;;6209839;23;20380;-35
2022/03/16 04:52:45;;;;;;;46.30;28.60;;;2.80;99.90;;;;;;6207378;23;20078;-35
2022/03/16 04:55:11;;;;;;;47.03;28.77;;;2.80;99.90;;;;;;6208071;23;20369;-33
2022/03/16 04:57:37;;;;;;;45.43;29.43;;;2.80;99.90;;;;;;6190995;23;20024;-35
2022/03/16 05:00:04;;;;;;;45.83;28.60;;;2.80;99.90;;;;;;6209800;23;20035;-35
2022/03/16 05:02:29;;;;;;;49.30;30.03;;;2.80;99.90;;;;;;6209054;23;20617;-35
2022/03/16 05:04:55;;;;;;;46.43;29.97;;;2.80;99.90;;;;;;6208700;23;20017;-33
2022/03/16 05:07:21;;;;;;;45.43;28.50;;;2.80;99.90;;;;;;6186044;23;20432;-37
2022/03/16 05:09:46;;;;;;;47.00;29.53;;;2.80;99.90;;;;;;6208008;23;20474;-36
2022/03/16 05:12:12;;;;;;;52.07;30.97;;;2.80;99.90;;;;;;6207478;23;20027;-36
2022/03/16 05:14:38;;;;;;;55.57;33.27;;;2.80;99.90;;;;;;6208133;23;20514;-36
2022/03/16 05:17:04;;;;;;;50.20;31.70;;;2.80;99.90;;;;;;6188291;23;20024;-38
2022/03/16 05:19:31;;;;;;;47.70;29.47;;;2.80;99.90;;;;;;6208468;23;20032;-34
2022/03/16 05:21:56;;;;;;;48.93;29.30;;;2.80;99.90;;;;;;6209795;23;20040;-36
2022/03/16 05:24:23;;;;;;;43.70;28.77;;;2.80;99.90;;;;;;6207294;23;20110;-36
2022/03/16 05:26:50;;;;;;;42.33;27.53;;;2.80;99.90;;;;;;6190029;23;20421;-34
2022/03/16 05:29:16;;;;;;;48.07;29.27;;;2.80;99.90;;;;;;6181014;23;20032;-34
2022/03/16 05:31:43;;;;;;;61.10;34.00;;;2.80;99.90;;;;;;6182889;23;20016;-36
2022/03/16 05:34:08;;;;;;;60.13;34.43;;;2.80;99.90;;;;;;6209184;23;20071;-36
2022/03/16 05:36:34;;;;;;;59.03;35.97;;;2.80;99.90;;;;;;6192188;23;20021;-34
2022/03/16 05:39:00;;;;;;;61.97;35.03;;;2.80;99.90;;;;;;6206121;23;20013;-36
2022/03/16 05:41:26;;;;;;;71.57;39.93;;;2.80;99.90;;;;;;6207322;23;20024;-35
2022/03/16 05:43:52;;;;;;;73.63;40.10;;;2.80;99.90;;;;;;6209153;23;20021;-33
2022/03/16 05:46:17;;;;;;;69.23;39.67;;;2.90;99.90;;;;;;6194383;23;20431;-33
2022/03/16 05:48:43;;;;;;;66.00;38.83;;;3.00;99.90;;;;;;6201402;23;20468;-36
2022/03/16 05:51:09;;;;;;;67.10;40.27;;;2.90;99.90;;;;;;6209466;23;20068;-36
2022/03/16 05:53:35;;;;;;;70.40;40.33;;;2.90;99.90;;;;;;6207077;23;20099;-37
2022/03/16 05:56:01;;;;;;;70.90;40.43;;;2.80;99.90;;;;;;6206884;23;20043;-36
2022/03/16 05:58:27;;;;;;;69.60;39.27;;;2.90;99.90;;;;;;6188990;23;20020;-34
2022/03/16 06:00:53;;;;;;;67.73;39.57;;;2.90;99.90;;;;;;6208593;23;20095;-35
2022/03/16 06:03:18;;;;;;;65.17;38.33;;;2.90;99.90;;;;;;6206993;23;20048;-34
2022/03/16 06:05:44;;;;;;;76.90;42.53;;;2.90;99.90;;;;;;6207770;23;20710;-35
2022/03/16 06:08:10;;;;;;;71.83;40.33;;;2.90;99.90;;;;;;6189563;23;20021;-35
2022/03/16 06:10:35;;;;;;;79.50;42.17;;;2.90;99.90;;;;;;6209761;23;20460;-36
2022/03/16 06:13:04;;;;;;;80.40;42.23;;;2.90;99.90;;;;;;6208160;23;20013;-35
2022/03/16 06:15:37;;;;;;;80.93;43.53;;;3.00;99.90;;;;;;6209940;23;20368;-36
2022/03/16 06:18:03;;;;;;;82.03;44.03;;;3.00;99.90;;;;;;6189222;23;20052;-35
2022/03/16 06:20:28;;;;;;;80.53;44.17;;;3.10;99.90;;;;;;6207823;23;20098;-34
2022/03/16 06:22:54;;;;;;;85.70;45.43;;;3.10;99.90;;;;;;6208570;23;20016;-36
2022/03/16 06:25:20;;;;;;;83.23;44.93;;;3.10;99.90;;;;;;6208499;23;20096;-34
2022/03/16 06:27:47;;;;;;;84.43;45.33;;;3.20;99.90;;;;;;6188145;23;20383;-36
2022/03/16 06:30:12;;;;;;;84.90;46.57;;;3.20;99.90;;;;;;6206598;23;20029;-35
2022/03/16 06:32:38;;;;;;;90.77;48.83;;;3.30;99.90;;;;;;6180934;23;20012;-36
2022/03/16 06:35:05;;;;;;;91.67;46.07;;;3.30;99.90;;;;;;6210133;23;20463;-35
2022/03/16 06:37:32;;;;;;;88.70;46.63;;;3.30;99.90;;;;;;6162414;23;20073;-34
2022/03/16 06:39:57;;;;;;;81.93;42.77;;;3.40;99.90;;;;;;6210223;23;20352;-34
2022/03/16 06:42:23;;;;;;;87.77;46.20;;;3.30;99.90;;;;;;6206056;23;20029;-37
2022/03/16 06:44:49;;;;;;;78.47;44.37;;;3.40;99.90;;;;;;6209585;23;20095;-33
2022/03/16 06:47:14;;;;;;;86.33;45.00;;;3.40;99.90;;;;;;6186872;23;20021;-33
2022/03/16 06:49:40;;;;;;;79.23;43.23;;;3.50;99.90;;;;;;6207844;23;20407;-34
2022/03/16 06:52:06;;;;;;;77.87;43.63;;;3.50;99.90;;;;;;6206538;23;20052;-36
2022/03/16 06:54:32;;;;;;;78.57;42.43;;;3.50;99.90;;;;;;6182730;23;20024;-35
2022/03/16 06:56:57;;;;;;;82.47;45.00;;;3.50;99.90;;;;;;6188146;23;20472;-34
2022/03/16 06:59:23;;;;;;;82.13;44.50;;;3.60;99.90;;;;;;6207273;23;20109;-33
2022/03/16 07:01:49;;;;;;;77.93;43.37;;;3.60;99.90;;;;;;6208168;23;20020;-36
2022/03/16 07:04:14;;;;;;;69.67;41.33;;;3.70;99.90;;;;;;6206623;23;20029;-33
2022/03/16 07:06:40;;;;;;;78.80;41.97;;;3.70;99.90;;;;;;6189505;23;20070;-33
2022/03/16 07:09:05;;;;;;;79.67;42.60;;;3.70;99.90;;;;;;6203870;23;20032;-32
2022/03/16 07:11:31;;;;;;;67.23;40.37;;;3.70;99.90;;;;;;6207823;23;20012;-36
2022/03/16 07:16:41;;;;;;;71.87;41.10;;;3.80;99.90;;;;;;6189664;23;20020;-35
2022/03/16 07:19:07;;;;;;;68.77;40.67;;;3.80;99.90;;;;;;6205592;23;20035;-33
2022/03/16 07:21:34;;;;;;;69.07;40.47;;;3.90;99.90;;;;;;6205828;23;20407;-35
2022/03/16 07:23:59;;;;;;;72.20;41.73;;;3.90;99.90;;;;;;6207776;23;20024;-32
2022/03/16 07:26:25;;;;;;;77.83;43.93;;;3.90;99.90;;;;;;6192267;23;20391;-32
2022/03/16 07:28:51;;;;;;;77.57;44.07;;;4.00;99.90;;;;;;6202351;23;20016;-33
2022/03/16 07:31:17;;;;;;;80.33;45.27;;;4.10;99.90;;;;;;6207455;23;20095;-33
2022/03/16 07:33:43;;;;;;;83.73;47.37;;;4.10;99.90;;;;;;6207673;23;20036;-35
2022/03/16 07:36:08;;;;;;;80.33;46.47;;;4.20;99.90;;;;;;6201568;23;20087;-36
2022/03/16 07:38:34;;;;;;;95.90;50.37;;;4.30;99.90;;;;;;6197718;23;20020;-34
2022/03/16 07:41:02;;;;;;;89.00;47.83;;;4.30;99.90;;;;;;6208550;23;20044;-35
2022/03/16 07:43:28;;;;;;;94.80;49.67;;;4.40;99.90;;;;;;6207483;23;20111;-35
2022/03/16 07:45:54;;;;;;;91.27;50.57;;;4.50;99.90;;;;;;6208711;23;20021;-35
2022/03/16 07:48:20;;;;;;;98.37;50.23;;;4.60;99.90;;;;;;6188662;23;20078;-35
2022/03/16 07:50:45;;;;;;;92.90;50.43;;;4.70;99.90;;;;;;6209148;23;20092;-34
2022/03/16 07:53:11;;;;;;;91.03;49.63;;;4.80;99.90;;;;;;6208071;23;20110;-36
2022/03/16 07:55:45;;;;;;;88.93;48.77;;;4.90;99.90;;;;;;6209260;23;20163;-35
2022/03/16 07:58:11;;;;;;;89.37;49.37;;;5.00;99.90;;;;;;6188607;23;20455;-35
2022/03/16 08:00:37;;;;;;;94.73;52.20;;;5.10;99.90;;;;;;6208883;23;20047;-35
2022/03/16 08:03:03;;;;;;;90.70;50.13;;;5.20;99.90;;;;;;6205498;23;20025;-35
2022/03/16 08:05:29;;;;;;;87.73;49.13;;;5.20;99.90;;;;;;6209162;23;20017;-36
2022/03/16 08:07:55;;;;;;;95.73;51.03;;;5.30;99.90;;;;;;6188528;23;20019;-35
2022/03/16 08:10:21;;;;;;;93.30;50.17;;;5.40;99.90;;;;;;6209100;23;20013;-35
2022/03/16 08:12:47;;;;;;;87.10;49.40;;;5.50;99.90;;;;;;6207740;23;20028;-36
2022/03/16 08:15:13;;;;;;;89.47;49.33;;;5.60;99.90;;;;;;6208883;23;20025;-35
2022/03/16 08:17:39;;;;;;;84.77;47.73;;;5.70;99.90;;;;;;6161793;23;20092;-36
2022/03/16 08:20:05;;;;;;;81.77;48.13;;;5.80;99.90;;;;;;6207857;23;20463;-36
2022/03/16 08:22:32;;;;;;;81.80;47.47;;;5.90;99.90;;;;;;6207689;23;20083;-35
2022/03/16 08:25:00;;;;;;;83.90;46.30;;;6.00;99.90;;;;;;6211037;23;20023;-36
2022/03/16 08:27:26;;;;;;;83.27;48.60;;;6.10;99.90;;;;;;6190007;23;20020;-35
2022/03/16 08:29:53;;;;;;;76.70;47.17;;;6.20;99.90;;;;;;6210527;23;20027;-36
2022/03/16 08:32:19;;;;;;;73.37;45.23;;;6.30;99.90;;;;;;6209273;23;20018;-37
2022/03/16 08:34:45;;;;;;;78.13;46.13;;;6.40;99.90;;;;;;6210584;23;20411;-36
2022/03/16 08:37:11;;;;;;;73.17;44.10;;;6.50;99.90;;;;;;6191190;23;20019;-36
2022/03/16 08:39:38;;;;;;;72.27;44.87;;;6.60;99.90;;;;;;6208554;23;20024;-35
2022/03/16 08:42:05;;;;;;;76.37;45.50;;;6.70;99.90;;;;;;6209030;23;20485;-35
2022/03/16 08:44:31;;;;;;;66.43;42.20;;;6.80;99.90;;;;;;6210319;23;20322;-35
2022/03/16 08:46:58;;;;;;;70.40;43.50;;;6.90;99.90;;;;;;6190000;23;20100;-35
2022/03/16 08:49:23;;;;;;;70.53;41.70;;;7.00;99.90;;;;;;6208772;23;20090;-36
2022/03/16 08:51:49;;;;;;;66.93;40.90;;;7.10;99.90;;;;;;6210408;23;20017;-36
2022/03/16 08:54:15;;;;;;;64.00;39.23;;;7.20;99.90;;;;;;6208453;23;20154;-35
2022/03/16 08:56:40;;;;;;;66.00;41.20;;;7.20;99.90;;;;;;6193001;23;20017;-35
2022/03/16 08:59:06;;;;;;;62.33;38.63;;;7.30;99.90;;;;;;6204727;23;20100;-36
2022/03/16 09:01:32;;;;;;;60.87;38.47;;;7.40;99.90;;;;;;6208323;23;20071;-35
2022/03/16 09:03:58;;;;;;;56.73;35.87;;;7.40;99.90;;;;;;6208173;23;20112;-34
2022/03/16 09:06:23;;;;;;;59.10;35.87;;;7.50;99.90;;;;;;6195688;23;20023;-36
2022/03/16 09:08:49;;;;;;;55.07;35.17;;;7.60;99.90;;;;;;6204871;23;20025;-33
2022/03/16 09:11:15;;;;;;;53.30;36.30;;;7.70;99.90;;;;;;6210232;23;20017;-34
2022/03/16 09:13:40;;;;;;;60.77;36.93;;;7.80;99.90;;;;;;6205283;23;20399;-35
2022/03/16 09:16:06;;;;;;;51.73;34.20;;;7.90;99.90;;;;;;6200438;23;20017;-36
2022/03/16 09:18:32;;;;;;;53.90;35.63;;;8.20;99.90;;;;;;6191018;23;20573;-34
2022/03/16 09:21:00;;;;;;;55.33;35.60;;;8.10;99.90;;;;;;6206185;23;20017;-36
2022/03/16 09:23:31;;;;;;;52.17;34.67;;;8.20;99.90;;;;;;6202673;23;20029;-36
2022/03/16 09:25:57;;;;;;;56.07;33.67;;;8.30;99.90;;;;;;6205661;23;20021;-36
2022/03/16 09:28:23;;;;;;;54.27;33.60;;;8.40;99.90;;;;;;6185567;23;20419;-34
2022/03/16 09:30:49;;;;;;;52.40;33.40;;;8.50;99.90;;;;;;6203876;23;20082;-37
2022/03/16 09:33:15;;;;;;;56.13;34.67;;;8.50;99.90;;;;;;6203306;23;20020;-37
2022/03/16 09:35:40;;;;;;;55.20;35.20;;;8.60;99.90;;;;;;6205783;23;20021;-36
2022/03/16 09:38:07;;;;;;;53.90;35.63;;;8.80;99.90;;;;;;6184792;23;20020;-34
2022/03/16 09:40:34;;;;;;;53.23;34.90;;;8.70;99.90;;;;;;6207218;23;20690;-35
2022/03/16 09:43:04;;;;;;;54.83;34.60;;;8.80;99.90;;;;;;6205382;23;20072;-36
2022/03/16 09:45:36;;;;;;;58.27;36.87;;;8.90;99.90;;;;;;6204221;23;20166;-34
2022/03/16 09:48:02;;;;;;;56.40;36.88;;;8.90;99.90;;;;;;6186175;23;20055;-36
2022/03/16 09:50:28;;;;;;;59.03;36.80;;;9.00;99.90;;;;;;6206680;23;20056;-36
2022/03/16 09:52:55;;;;;;;55.57;35.30;;;9.20;99.90;;;;;;6205771;23;20635;-36
2022/03/16 09:55:21;;;;;;;49.60;31.73;;;9.20;99.90;;;;;;6206928;23;20024;-36
2022/03/16 09:57:47;;;;;;;43.00;28.50;;;9.30;99.90;;;;;;6185811;23;20071;-36
2022/03/16 10:00:13;;;;;;;47.53;28.23;;;9.50;99.90;;;;;;6204774;23;20131;-35
2022/03/16 10:02:40;;;;;;;39.07;27.03;;;9.60;99.90;;;;;;6205028;23;20024;-34
2022/03/16 10:05:09;;;;;;;38.03;26.37;;;9.70;99.90;;;;;;6206619;23;20063;-35
2022/03/16 10:07:37;;;;;;;43.30;26.80;;;9.80;99.90;;;;;;6186677;23;20052;-35
2022/03/16 10:15:34;;;;;;;34.47;21.07;;;10.10;99.90;;;;;;6207111;23;20027;-37
2022/03/16 10:18:04;;;;;;;31.10;21.23;;;10.20;99.90;;;;;;6185268;23;20013;-38
2022/03/16 10:20:33;;;;;;;34.27;21.87;;;10.30;99.90;;;;;;6178421;23;20021;-38
2022/03/16 10:23:06;;;;;;;30.23;20.17;;;10.50;99.90;;;;;;6204154;23;20020;-39
2022/03/16 10:25:42;;;;;;;30.07;18.77;;;10.60;99.90;;;;;;6206009;23;20056;-38
2022/03/16 10:28:16;;;;;;;26.20;18.63;;;10.70;99.90;;;;;;6184319;23;20035;-37
2022/03/16 10:30:52;;;;;;;27.63;19.13;;;10.80;99.90;;;;;;6205271;23;20475;-38
2022/03/16 10:33:19;;;;;;;28.27;19.93;;;10.90;99.90;;;;;;6207844;23;20102;-39
2022/03/16 10:36:00;;;;;;;27.57;18.00;;;10.90;99.90;;;;;;6208089;23;20044;-38
2022/03/16 10:38:27;;;;;;;24.40;17.27;;;11.00;99.90;;;;;;6189392;23;20076;-38
2022/03/16 10:46:48;;;;;;;24.20;16.60;;;11.30;99.90;;;;;;6190811;23;20111;-38
2022/03/16 10:49:17;;;;;;;21.93;16.07;;;11.30;99.90;;;;;;6207770;23;20676;-37
2022/03/16 10:51:44;;;;;;;23.53;16.27;;;11.40;99.90;;;;;;6209640;23;20025;-36
2022/03/16 10:54:14;;;;;;;24.40;16.25;;;11.40;99.90;;;;;;6207759;23;20414;-38
2022/03/16 10:56:41;;;;;;;21.92;15.70;;;11.40;99.90;;;;;;6191664;23;20025;-37
2022/03/16 10:59:08;;;;;;;20.58;16.02;;;11.50;99.90;;;;;;6205801;23;20027;-39
2022/03/16 11:01:38;;;;;;;24.30;16.05;;;11.50;99.90;;;;;;6209118;23;20031;-38
2022/03/16 11:04:04;;;;;;;28.50;16.02;;;11.60;99.90;;;;;;6207760;23;20056;-38
2022/03/16 11:06:31;;;;;;;23.50;16.35;;;11.60;99.90;;;;;;6193618;23;20017;-37
2022/03/16 11:08:59;;;;;;;22.83;15.60;;;11.70;99.90;;;;;;6205703;23;20020;-39
2022/03/16 11:14:12;;;;;;;22.92;14.05;;;11.80;99.90;;;;;;6208212;23;20017;-38
2022/03/16 11:16:38;;;;;;;18.52;14.07;;;11.90;99.90;;;;;;6190616;23;20020;-37
2022/03/16 11:19:05;;;;;;;18.73;12.65;;;12.00;99.90;;;;;;6205876;23;20448;-37
2022/03/16 11:21:47;;;;;;;20.33;13.15;;;12.00;99.90;;;;;;6207972;23;20056;-35
2022/03/16 11:24:18;;;;;;;17.48;11.75;;;12.20;99.90;;;;;;6207460;23;20071;-39
2022/03/16 11:27:09;;;;;;;18.30;11.98;;;12.20;99.90;;;;;;6190919;23;20414;-38
2022/03/16 11:29:58;;;;;;;18.95;12.90;;;12.30;99.90;;;;;;6207588;23;20567;-38
2022/03/16 11:32:24;;;;;;;18.60;12.25;;;12.30;99.90;;;;;;6206821;23;20078;-39
2022/03/16 11:34:59;;;;;;;17.60;12.70;;;12.40;99.90;;;;;;6208646;23;20027;-39
2022/03/16 11:37:36;;;;;;;19.48;13.07;;;12.50;99.90;;;;;;6189790;23;20460;-39
2022/03/16 11:40:11;;;;;;;18.88;13.93;;;12.60;99.90;;;;;;6208798;23;20017;-37
2022/03/16 11:43:05;;;;;;;19.73;13.80;;;12.60;99.90;;;;;;6208368;23;20019;-38
2022/03/16 11:45:50;;;;;;;21.23;14.40;;;12.70;99.90;;;;;;6208921;23;20016;-39
2022/03/16 11:48:37;;;;;;;23.33;15.05;;;12.80;99.90;;;;;;6187258;23;20135;-38
2022/03/16 11:51:08;;;;;;;20.95;14.60;;;12.90;99.90;;;;;;6209407;23;20408;-39
2022/03/16 11:54:07;;;;;;;;;;;13.00;99.90;;;;;;6209210;23;20031;-38
2022/03/16 11:56:36;;;;;;;22.45;14.02;;;13.10;99.90;;;;;;6193028;23;20356;-39
2022/03/16 11:59:18;;;;;;;18.63;13.38;;;13.20;99.90;;;;;;6207451;23;20528;-39
2022/03/16 12:02:01;;;;;;;21.42;14.38;;;13.30;99.90;;;;;;6211130;23;20067;-38
2022/03/16 12:04:35;;;;;;;21.40;13.68;;;13.40;99.90;;;;;;6209670;23;20503;-38
2022/03/16 12:07:09;;;;;;;24.02;14.35;;;13.50;99.90;;;;;;6189946;23;20135;-37
2022/03/16 12:09:42;;;;;;;19.42;14.10;;;13.50;99.90;;;;;;6207522;23;20096;-38
2022/03/16 12:15:12;;;;;;;21.00;13.73;;;13.60;99.90;;;;;;6210566;23;20269;-38
2022/03/16 12:17:38;;;;;;;19.42;13.80;;;13.70;99.90;;;;;;6190924;23;20016;-39
2022/03/16 12:20:11;;;;;;;22.13;15.68;;;13.80;99.90;;;;;;6183202;23;20028;-38
2022/03/16 12:22:38;;;;;;;20.15;14.68;;;13.90;99.90;;;;;;6209989;23;20040;-38
2022/03/16 12:25:22;;;;;;;22.27;14.57;;;13.80;99.90;;;;;;6208487;23;20029;-35
2022/03/16 12:30:48;;;;;;;21.02;13.60;;;13.80;99.90;;;;;;6210342;23;20075;-36
2022/03/16 12:33:20;;;;;;;19.42;12.93;;;13.90;99.90;;;;;;6210023;23;20036;-36
2022/03/16 12:35:50;;;;;;;18.05;12.68;;;13.90;99.90;;;;;;6210417;23;20103;-35
2022/03/16 12:38:17;;;;;;;18.20;11.82;;;13.90;99.90;;;;;;6189496;23;20043;-35
2022/03/16 12:43:32;;;;;;;18.10;12.27;;;14.00;99.90;;;;;;6166243;23;20276;-36
2022/03/16 12:45:59;;;;;;;17.17;12.02;;;14.00;99.90;;;;;;6209055;23;20024;-36
2022/03/16 12:48:33;;;;;;;17.67;11.88;;;14.10;99.90;;;;;;6190446;23;20021;-36
2022/03/16 12:51:00;;;;;;;15.75;11.73;;;14.10;99.90;;;;;;6210538;23;20024;-34
2022/03/16 12:53:44;;;;;;;19.15;13.07;;;14.10;99.90;;;;;;6209319;23;20083;-35
2022/03/16 12:56:17;;;;;;;18.70;12.73;;;14.20;99.90;;;;;;6201879;23;20079;-37
2022/03/16 12:58:54;;;;;;;18.38;12.88;;;14.20;99.90;;;;;;6203292;23;20574;-36
2022/03/16 13:01:20;;;;;;;18.58;12.70;;;14.30;99.90;;;;;;6207837;23;20024;-35
2022/03/16 13:03:49;;;;;;;18.67;12.18;;;14.30;99.90;;;;;;6206997;23;20020;-34